Succasunna, New Jersey
Current Conditions -  °F | °C
As of 4:35 AM on Thursday 27 Nov 2014 (Local Time) from KMMU Reporting Station
NA  
Wind Chill: 37°   Ceiling: NA
Heat Index: 37°   Visibility: 10mi
Dew Point: 32°   Wind: 0mph
Humidity: 81%   Direction: NA
Pressure: 29.94"   Gusts: NA
Location:  40.87°N, 74.64°W
Report Text: KMMU 270935Z AUTO 00000KT 10SM 03/M00 A2994 RMK AO2
Loading
Personal Weather Stations






























Interactive Weather Map New forecast layout! Learn more

10-Day Weather Forecast

Advertisements
Track Severe Weather on mobile